Time;durP1;ratioP1;P1;durP2;ratioP2;P2;SDS_P1;SDS_P2;PMS_P1;PMS_P2;Temp;Humidity;BMP_temperature;BMP_pressure;BME280_temperature;BME280_humidity;BME280_pressure;Samples;Min_cycle;Max_cycle;Signal;HPM_P1;HPM_P2
2021/07/27 00:02:18;;;;;;;6.70;6.00;;;25.90;99.90;;;;;;4795964;29;20042;-89
2021/07/27 00:04:44;;;;;;;6.22;5.63;;;25.90;99.90;;;;;;4843848;29;20397;-88
2021/07/27 00:07:14;;;;;;;6.13;5.53;;;25.90;99.90;;;;;;4844233;29;20038;-89
2021/07/27 00:09:40;;;;;;;6.50;5.70;;;25.90;99.90;;;;;;4811381;29;20034;-89
2021/07/27 00:12:08;;;;;;;6.70;6.00;;;25.90;99.90;;;;;;4826021;29;20041;-88
2021/07/27 00:14:38;;;;;;;6.20;5.60;;;25.90;99.90;;;;;;4843747;29;20473;-89
2021/07/27 00:17:04;;;;;;;5.85;5.25;;;25.90;99.90;;;;;;4846004;29;20046;-89
2021/07/27 00:19:32;;;;;;;7.03;5.78;;;25.80;99.90;;;;;;4825709;29;20049;-88
2021/07/27 00:22:00;;;;;;;6.32;5.40;;;25.90;99.90;;;;;;4842461;29;20063;-88
2021/07/27 00:24:26;;;;;;;6.28;5.65;;;25.90;99.90;;;;;;4840618;29;20066;-89
2021/07/27 00:26:55;;;;;;;5.82;5.18;;;25.90;99.90;;;;;;4826427;29;20473;-89
2021/07/27 00:29:22;;;;;;;6.18;5.53;;;25.90;99.90;;;;;;4826052;29;20041;-89
2021/07/27 00:31:50;;;;;;;6.45;5.57;;;25.90;99.90;;;;;;4844421;29;20034;-89
2021/07/27 00:34:18;;;;;;;6.10;5.40;;;25.90;99.90;;;;;;4826634;29;20030;-89
2021/07/27 00:36:44;;;;;;;5.93;5.00;;;25.80;99.90;;;;;;4842390;29;20113;-89
2021/07/27 00:39:10;;;;;;;6.93;5.93;;;25.90;99.90;;;;;;4841942;29;20114;-89
2021/07/27 00:41:36;;;;;;;6.35;5.75;;;25.90;99.90;;;;;;4811386;29;20485;-89
2021/07/27 00:44:02;;;;;;;6.22;5.63;;;25.90;99.90;;;;;;4813163;29;20041;-89
2021/07/27 00:46:30;;;;;;;6.32;5.55;;;25.90;99.90;;;;;;4842373;29;20135;-89
2021/07/27 00:48:58;;;;;;;6.18;5.43;;;25.90;99.90;;;;;;4848868;29;20113;-88
2021/07/27 00:51:24;;;;;;;6.10;5.50;;;25.90;99.90;;;;;;4820231;29;20034;-89
2021/07/27 00:53:49;;;;;;;5.95;5.35;;;25.90;99.90;;;;;;4842274;29;20033;-89
2021/07/27 00:56:15;;;;;;;5.53;4.88;;;25.90;99.90;;;;;;4828820;29;20122;-90
2021/07/27 00:58:44;;;;;;;5.55;4.95;;;25.80;99.90;;;;;;4810845;29;20042;-89
2021/07/27 01:01:12;;;;;;;5.22;4.70;;;25.80;99.90;;;;;;4842053;29;20044;-89
2021/07/27 01:03:45;;;;;;;6.05;5.45;;;25.80;99.90;;;;;;4841939;29;20033;-89
2021/07/27 01:06:13;;;;;;;5.87;5.27;;;25.90;99.90;;;;;;4845614;29;20495;-89
2021/07/27 01:08:43;;;;;;;5.43;4.93;;;25.90;99.90;;;;;;4842524;29;20042;-89
2021/07/27 01:11:12;;;;;;;6.78;5.38;;;25.80;99.90;;;;;;4825750;29;20065;-89
2021/07/27 01:13:40;;;;;;;5.53;4.90;;;25.80;99.90;;;;;;4825175;29;20127;-89
2021/07/27 01:16:08;;;;;;;5.32;4.78;;;25.90;99.90;;;;;;4825361;29;20443;-89
2021/07/27 01:18:43;;;;;;;5.40;4.90;;;25.80;99.90;;;;;;4825065;29;20373;-89
2021/07/27 01:37:33;;;;;;;5.82;5.22;;;25.80;99.90;;;;;;4831884;29;20136;-89
2021/07/27 01:39:59;;;;;;;5.90;5.30;;;25.80;99.90;;;;;;4836011;29;20042;-89
2021/07/27 01:42:24;;;;;;;5.90;5.13;;;25.80;99.90;;;;;;4814251;29;20474;-90
2021/07/27 01:44:50;;;;;;;5.70;5.20;;;25.80;99.90;;;;;;4828967;29;20034;-89
2021/07/27 01:47:19;;;;;;;5.53;5.03;;;25.80;99.90;;;;;;4828650;29;20090;-89
2021/07/27 01:49:46;;;;;;;5.60;4.68;;;25.80;99.90;;;;;;4845688;29;20034;-89
2021/07/27 01:52:14;;;;;;;5.47;4.70;;;25.80;99.90;;;;;;4813784;29;20030;-89
2021/07/27 01:54:53;;;;;;;5.90;4.82;;;25.80;99.90;;;;;;4844850;29;20031;-89
2021/07/27 01:57:19;;;;;;;5.15;4.65;;;25.80;99.90;;;;;;4828198;29;20472;-91
2021/07/27 01:59:48;;;;;;;5.57;4.97;;;25.80;99.90;;;;;;4844986;29;20029;-89
2021/07/27 02:02:13;;;;;;;5.47;4.50;;;25.80;99.90;;;;;;4828514;29;20034;-90
2021/07/27 02:04:39;;;;;;;5.50;4.90;;;25.80;99.90;;;;;;4798549;29;20552;-90
2021/07/27 02:07:04;;;;;;;5.30;4.50;;;25.80;99.90;;;;;;4849025;29;20053;-90
2021/07/27 02:09:37;;;;;;;5.20;4.70;;;25.80;99.90;;;;;;4834054;29;20034;-89
2021/07/27 02:12:03;;;;;;;5.25;4.75;;;25.80;99.90;;;;;;4848709;29;20087;-89
2021/07/27 02:15:04;;;;;;;5.75;5.07;;;25.80;99.90;;;;;;4846807;29;20395;-88
2021/07/27 02:17:14;;;;;;;5.57;4.70;;;25.80;99.90;;;;;;4850431;29;20457;-89
2021/07/27 02:19:40;;;;;;;5.10;4.60;;;25.80;99.90;;;;;;4847223;29;20056;-90
2021/07/27 02:22:06;;;;;;;5.72;5.13;;;25.80;99.90;;;;;;4829585;29;20037;-90
2021/07/27 02:24:31;;;;;;;4.97;4.45;;;25.80;99.90;;;;;;4828588;29;20392;-89
2021/07/27 02:26:57;;;;;;;5.97;5.10;;;25.80;99.90;;;;;;4813689;29;20059;-89
2021/07/27 02:29:22;;;;;;;6.50;5.80;;;25.80;99.90;;;;;;4806948;29;20046;-91
2021/07/27 02:31:48;;;;;;;5.50;5.00;;;25.70;99.90;;;;;;4831086;29;20113;-90
2021/07/27 02:34:14;;;;;;;5.53;4.75;;;25.80;99.90;;;;;;4844371;29;20118;-89
2021/07/27 02:36:39;;;;;;;5.40;4.72;;;25.70;99.90;;;;;;4828484;29;20185;-90
2021/07/27 02:39:06;;;;;;;5.38;4.80;;;25.80;99.90;;;;;;4827877;29;20060;-88
2021/07/27 02:41:33;;;;;;;6.00;5.40;;;25.80;99.90;;;;;;4812745;29;20469;-89
2021/07/27 02:44:00;;;;;;;5.35;4.85;;;25.80;99.90;;;;;;4827695;29;20034;-89
2021/07/27 02:46:27;;;;;;;6.32;5.30;;;25.80;99.90;;;;;;4812617;29;20042;-89
2021/07/27 02:48:52;;;;;;;5.45;4.95;;;25.80;99.90;;;;;;4812319;29;20034;-88
2021/07/27 02:51:18;;;;;;;5.97;4.82;;;25.80;99.90;;;;;;4827569;29;20033;-89
2021/07/27 02:53:43;;;;;;;5.55;5.00;;;25.70;99.90;;;;;;4832525;29;20605;-89
2021/07/27 02:56:09;;;;;;;5.75;5.20;;;25.80;99.90;;;;;;4799589;29;20054;-89
2021/07/27 02:58:35;;;;;;;5.30;4.80;;;25.80;99.90;;;;;;4828026;29;20033;-89
2021/07/27 03:01:02;;;;;;;5.38;4.88;;;25.70;99.90;;;;;;4818651;29;20042;-89
2021/07/27 03:03:30;;;;;;;6.18;5.57;;;25.70;99.90;;;;;;4828631;29;20034;-89
2021/07/27 03:06:00;;;;;;;6.70;6.00;;;25.80;99.90;;;;;;4843517;29;20034;-89
2021/07/27 03:08:45;;;;;;;6.57;5.88;;;25.70;99.90;;;;;;4843651;29;20166;-91
2021/07/27 03:11:11;;;;;;;6.72;6.03;;;25.80;99.90;;;;;;4828749;29;20094;-88
2021/07/27 03:13:37;;;;;;;6.40;5.80;;;25.70;99.90;;;;;;4826486;29;20038;-89
2021/07/27 03:16:03;;;;;;;6.43;5.82;;;25.70;99.90;;;;;;4827176;29;20037;-88
2021/07/27 03:18:28;;;;;;;7.70;6.55;;;25.70;99.90;;;;;;4811474;29;20030;-89
2021/07/27 03:20:54;;;;;;;7.00;6.30;;;25.70;99.90;;;;;;4811456;29;20053;-88
2021/07/27 03:23:25;;;;;;;6.97;6.28;;;25.70;99.90;;;;;;4813253;29;20034;-88
2021/07/27 03:25:50;;;;;;;7.75;6.38;;;25.70;99.90;;;;;;4842938;29;20029;-88
2021/07/27 03:28:19;;;;;;;6.93;6.15;;;25.70;99.90;;;;;;4811770;29;20067;-88
2021/07/27 03:30:45;;;;;;;8.15;7.07;;;25.70;99.90;;;;;;4799298;29;20037;-88
2021/07/27 03:33:14;;;;;;;7.57;6.63;;;25.70;99.90;;;;;;4826745;29;20492;-88
2021/07/27 03:35:39;;;;;;;7.05;6.35;;;25.70;99.90;;;;;;4842875;29;20086;-88
2021/07/27 03:38:05;;;;;;;8.88;7.45;;;25.70;99.90;;;;;;4826334;29;20042;-88
2021/07/27 03:40:33;;;;;;;9.45;7.55;;;25.70;99.90;;;;;;4810952;29;20041;-88
2021/07/27 03:42:59;;;;;;;7.57;6.78;;;25.70;99.90;;;;;;4846382;29;20504;-88
2021/07/27 03:45:25;;;;;;;7.32;6.57;;;25.70;99.90;;;;;;4826826;29;20041;-88
2021/07/27 03:47:51;;;;;;;8.07;7.25;;;25.70;99.90;;;;;;4811646;29;20034;-89
2021/07/27 03:50:16;;;;;;;8.18;7.25;;;25.70;99.90;;;;;;4829576;29;20461;-89
2021/07/27 03:52:44;;;;;;;10.10;8.15;;;25.70;99.90;;;;;;4826454;29;20030;-89
2021/07/27 03:55:11;;;;;;;9.15;7.45;;;25.70;99.90;;;;;;4798353;29;20450;-89
2021/07/27 03:57:36;;;;;;;8.73;7.70;;;25.70;99.90;;;;;;4810703;29;20508;-90
2021/07/27 04:00:04;;;;;;;8.10;7.13;;;25.70;99.90;;;;;;4842694;29;20033;-90
2021/07/27 04:02:29;;;;;;;8.95;7.75;;;25.70;99.90;;;;;;4812124;29;20030;-88
2021/07/27 04:04:55;;;;;;;8.18;7.22;;;25.70;99.90;;;;;;4827718;29;20422;-90
2021/07/27 04:07:21;;;;;;;8.20;7.13;;;25.70;99.90;;;;;;4838839;29;20030;-90
2021/07/27 04:09:46;;;;;;;9.23;7.93;;;25.70;99.90;;;;;;4817864;29;20033;-92
2021/07/27 04:12:12;;;;;;;8.38;7.57;;;25.70;99.90;;;;;;4813295;29;20033;-89
2021/07/27 04:14:38;;;;;;;8.38;7.47;;;25.70;99.90;;;;;;4842190;29;20053;-89
2021/07/27 04:17:03;;;;;;;11.00;8.35;;;25.70;99.90;;;;;;4814696;29;20472;-90
2021/07/27 04:19:29;;;;;;;8.45;7.50;;;25.70;99.90;;;;;;4842332;29;20105;-90
2021/07/27 04:21:55;;;;;;;9.18;8.15;;;25.70;99.90;;;;;;4795496;29;20052;-89
2021/07/27 04:24:21;;;;;;;8.57;7.68;;;25.70;99.90;;;;;;4826024;29;20114;-89
2021/07/27 04:26:47;;;;;;;10.63;9.15;;;25.70;99.90;;;;;;4842176;29;20033;-90
2021/07/27 04:29:17;;;;;;;9.98;8.70;;;25.70;99.90;;;;;;4811153;29;20038;-89
2021/07/27 04:31:43;;;;;;;9.73;8.27;;;25.70;99.90;;;;;;4842267;29;20489;-89
2021/07/27 04:34:08;;;;;;;9.80;8.75;;;25.70;99.90;;;;;;4842358;29;20037;-89
2021/07/27 04:36:34;;;;;;;9.02;8.05;;;25.70;99.90;;;;;;4825690;29;20044;-90
2021/07/27 04:39:03;;;;;;;9.43;8.50;;;25.70;99.90;;;;;;4814161;29;20037;-89
2021/07/27 04:41:28;;;;;;;10.23;8.90;;;25.70;99.90;;;;;;4811714;29;20061;-89
2021/07/27 04:43:57;;;;;;;9.18;8.20;;;25.70;99.90;;;;;;4825599;29;20496;-89
2021/07/27 04:46:22;;;;;;;10.18;9.07;;;25.70;99.90;;;;;;4829370;29;20030;-89
2021/07/27 04:48:48;;;;;;;9.40;8.27;;;25.70;99.90;;;;;;4842055;29;20049;-90
2021/07/27 04:51:14;;;;;;;9.57;8.15;;;25.70;99.90;;;;;;4825636;29;20078;-91
2021/07/27 04:53:41;;;;;;;10.30;9.20;;;25.70;99.90;;;;;;4825559;29;20038;-90
2021/07/27 04:56:09;;;;;;;9.68;8.55;;;25.70;99.90;;;;;;4842139;29;20060;-91
2021/07/27 04:58:40;;;;;;;11.98;9.48;;;25.60;99.90;;;;;;4845175;29;20053;-91
2021/07/27 05:01:08;;;;;;;9.70;8.57;;;25.70;99.90;;;;;;4826952;29;20101;-90
2021/07/27 05:03:38;;;;;;;11.15;8.75;;;25.70;99.90;;;;;;4847671;29;20075;-90
2021/07/27 05:06:07;;;;;;;11.27;9.18;;;25.70;99.90;;;;;;4829479;29;20038;-91
2021/07/27 05:08:34;;;;;;;9.60;8.60;;;25.70;99.90;;;;;;4845909;29;20066;-90
2021/07/27 05:11:06;;;;;;;9.88;8.65;;;25.70;99.90;;;;;;4845871;29;20038;-90
2021/07/27 05:13:39;;;;;;;9.57;8.55;;;25.70;99.90;;;;;;4815795;29;20038;-88
2021/07/27 05:16:12;;;;;;;10.07;8.70;;;25.70;99.90;;;;;;4829199;29;20026;-89
2021/07/27 05:18:41;;;;;;;9.23;8.25;;;25.70;99.90;;;;;;4827391;29;20086;-92
2021/07/27 05:21:09;;;;;;;8.50;7.60;;;25.70;99.90;;;;;;4846820;29;20034;-90
2021/07/27 05:23:42;;;;;;;8.70;7.80;;;25.60;99.90;;;;;;4831349;29;20137;-90
2021/07/27 05:26:12;;;;;;;8.68;7.80;;;25.70;99.90;;;;;;4835210;29;20026;-89
2021/07/27 05:28:38;;;;;;;8.23;7.32;;;25.70;99.90;;;;;;4829552;29;20140;-87
2021/07/27 05:31:25;;;;;;;8.48;7.53;;;25.70;99.90;;;;;;4838195;29;20481;-90
2021/07/27 05:34:00;;;;;;;8.32;7.45;;;25.60;99.90;;;;;;4845576;29;20125;-90
2021/07/27 05:36:35;;;;;;;7.82;7.03;;;25.70;99.90;;;;;;4830434;29;20040;-91
2021/07/27 05:39:00;;;;;;;;;;;25.70;99.90;;;;;;4820400;29;20245;-89
2021/07/27 05:41:37;;;;;;;7.65;6.85;;;25.60;99.90;;;;;;4836313;29;19908;-90
2021/07/27 05:44:18;;;;;;;;;;;;;;;;;;;;;
2021/07/27 05:46:44;;;;;;;7.60;6.90;;;25.60;99.90;;;;;;4848056;29;20076;-91
2021/07/27 05:49:22;;;;;;;;;;;;;;;;;;;;;
2021/07/27 05:51:56;;;;;;;7.03;6.25;;;25.60;99.90;;;;;;4830784;29;20048;-90
2021/07/27 05:54:23;;;;;;;7.80;7.00;;;25.60;99.90;;;;;;4832850;29;20073;-89
2021/07/27 05:57:00;;;;;;;;;;;;;;;;;;;;;
2021/07/27 05:59:40;;;;;;;7.50;6.70;;;25.60;99.90;;;;;;4845399;29;20061;-91
2021/07/27 06:02:24;;;;;;;7.35;6.65;;;25.60;99.90;;;;;;4828538;29;20425;-92
2021/07/27 06:04:59;;;;;;;8.50;7.65;;;25.60;99.90;;;;;;4815044;29;20034;-90
2021/07/27 06:07:42;;;;;;;;;;;25.60;99.90;;;;;;4845834;29;20034;-90
2021/07/27 06:14:06;;;;;;;;;;;;;;;;;;;;;
2021/07/27 06:20:24;;;;;;;;;;;;;;;;;;;;;
2021/07/27 06:23:09;;;;;;;;;;;;;;;;;;;;;
2021/07/27 06:26:00;;;;;;;7.63;6.82;;;25.60;99.90;;;;;;4845602;29;20060;-92
2021/07/27 06:28:33;;;;;;;7.03;6.43;;;25.60;99.90;;;;;;4832357;29;20117;-91
2021/07/27 06:31:22;;;;;;;7.17;6.47;;;25.60;99.90;;;;;;4828487;29;20407;-92
2021/07/27 06:38:25;;;;;;;;;;;;;;;;;;;;;
2021/07/27 06:40:53;;;;;;;;;;;;;;;;;;;;;
2021/07/27 06:43:42;;;;;;;6.63;6.03;;;25.50;99.90;;;;;;4830131;29;20057;-92
2021/07/27 06:46:15;;;;;;;5.97;5.45;;;25.60;99.90;;;;;;4830603;29;20105;-92
2021/07/27 06:51:39;;;;;;;6.82;6.20;;;25.60;99.90;;;;;;4837526;29;20519;-92
2021/07/27 06:54:33;;;;;;;;;;;;;;;;;;;;;
2021/07/27 06:57:04;;;;;;;7.00;6.40;;;25.60;99.90;;;;;;4844839;29;20037;-91
2021/07/27 06:59:59;;;;;;;7.13;6.53;;;25.60;99.90;;;;;;4828291;29;20056;-93
2021/07/27 07:08:21;;;;;;;6.78;6.18;;;25.60;99.90;;;;;;4755387;30;20054;-93
2021/07/27 07:14:46;;;;;;;;;;;;;;;;;;;;;
2021/07/27 07:17:15;;;;;;;5.70;4.88;;;25.60;99.90;;;;;;4838952;29;20862;-88
2021/07/27 07:19:43;;;;;;;5.93;5.43;;;25.60;99.90;;;;;;4844512;29;20042;-92
2021/07/27 07:22:21;;;;;;;;;;;;;;;;;;;;;
2021/07/27 07:24:55;;;;;;;5.85;5.25;;;25.60;99.90;;;;;;4836377;29;20147;-92
2021/07/27 07:27:23;;;;;;;4.68;4.28;;;25.60;99.90;;;;;;4814486;29;20038;-90
2021/07/27 07:29:53;;;;;;;5.47;4.97;;;25.60;99.90;;;;;;4829803;29;20037;-92
2021/07/27 07:33:05;;;;;;;4.65;4.25;;;25.60;99.90;;;;;;4842381;29;20038;-92
2021/07/27 07:35:40;;;;;;;4.53;4.13;;;25.60;99.90;;;;;;4834941;29;20042;-92
2021/07/27 07:38:05;;;;;;;4.57;4.18;;;25.60;99.90;;;;;;4835606;29;20045;-90
2021/07/27 07:40:34;;;;;;;4.63;4.20;;;25.60;99.90;;;;;;4811271;29;20050;-90
2021/07/27 07:43:08;;;;;;;4.70;4.30;;;25.60;99.90;;;;;;4847145;29;20070;-91
2021/07/27 07:45:46;;;;;;;4.72;4.25;;;25.60;99.90;;;;;;4826746;29;20112;-91
2021/07/27 07:48:24;;;;;;;4.43;4.03;;;25.60;99.90;;;;;;4841367;29;20120;-90
2021/07/27 07:50:50;;;;;;;4.95;4.45;;;25.60;99.90;;;;;;4826967;29;20037;-90
2021/07/27 07:53:25;;;;;;;;;;;;;;;;;;;;;
2021/07/27 07:56:05;;;;;;;4.70;4.25;;;25.60;99.90;;;;;;4858004;29;20057;-90
2021/07/27 07:58:31;;;;;;;4.68;4.22;;;25.60;99.90;;;;;;4826864;29;20050;-90
2021/07/27 08:01:05;;;;;;;4.72;4.32;;;25.60;99.90;;;;;;4826331;29;20133;-92
2021/07/27 08:03:32;;;;;;;;;;;25.60;99.90;;;;;;4843089;29;20037;-90
2021/07/27 08:06:08;;;;;;;4.95;4.47;;;25.60;99.90;;;;;;4826157;29;19931;-91
2021/07/27 08:08:39;;;;;;;4.65;4.25;;;25.60;99.90;;;;;;4842003;29;20034;-90
2021/07/27 08:11:08;;;;;;;4.50;4.05;;;25.60;99.90;;;;;;4842526;29;20057;-90
2021/07/27 08:13:39;;;;;;;4.65;4.25;;;25.60;99.90;;;;;;4844115;29;20204;-90
2021/07/27 08:16:13;;;;;;;4.78;4.28;;;25.60;99.90;;;;;;4846295;29;20030;-90
2021/07/27 08:18:44;;;;;;;4.50;4.10;;;25.60;99.90;;;;;;4842159;29;20030;-90
2021/07/27 08:21:15;;;;;;;4.30;3.90;;;25.60;99.90;;;;;;4842142;29;20572;-90
2021/07/27 08:23:59;;;;;;;4.88;4.38;;;25.60;99.90;;;;;;4841485;29;20041;-90
2021/07/27 08:26:28;;;;;;;4.13;3.83;;;25.60;99.90;;;;;;4826206;29;20033;-90
2021/07/27 08:28:58;;;;;;;3.80;3.50;;;25.60;99.90;;;;;;4847153;29;20053;-89
2021/07/27 08:31:37;;;;;;;;;;;;;;;;;;;;;
2021/07/27 08:34:07;;;;;;;4.90;4.50;;;25.60;99.90;;;;;;4842411;29;20036;-91
2021/07/27 08:36:42;;;;;;;5.00;4.60;;;25.60;99.90;;;;;;4827567;29;20038;-90
2021/07/27 08:39:11;;;;;;;4.55;4.15;;;25.60;99.90;;;;;;4816373;29;20128;-90
2021/07/27 08:41:39;;;;;;;4.70;4.22;;;25.60;99.90;;;;;;4825401;29;20062;-90
2021/07/27 08:44:20;;;;;;;4.40;4.00;;;25.60;99.90;;;;;;4825403;29;20456;-90
2021/07/27 08:46:49;;;;;;;4.82;4.38;;;25.60;99.90;;;;;;4844660;29;20037;-90
2021/07/27 08:49:25;;;;;;;4.85;4.32;;;25.60;99.90;;;;;;4825288;29;20029;-90
2021/07/27 08:51:58;;;;;;;4.90;4.40;;;25.60;99.90;;;;;;4825791;29;20034;-90
2021/07/27 08:54:24;;;;;;;4.37;3.97;;;25.60;99.90;;;;;;4825356;29;20042;-91
2021/07/27 08:56:54;;;;;;;5.43;4.60;;;25.60;99.90;;;;;;4842160;29;20070;-89
2021/07/27 08:59:23;;;;;;;4.32;3.92;;;25.60;99.90;;;;;;4831024;29;20054;-90
2021/07/27 09:01:55;;;;;;;4.63;4.22;;;25.60;99.90;;;;;;4846664;29;20117;-90
2021/07/27 09:04:31;;;;;;;4.82;4.43;;;25.60;99.90;;;;;;4831266;29;20097;-90
2021/07/27 09:07:01;;;;;;;5.28;4.78;;;25.60;99.90;;;;;;4832807;29;20198;-90
2021/07/27 09:09:34;;;;;;;4.80;4.40;;;25.60;99.90;;;;;;4832103;29;20042;-90
2021/07/27 09:12:09;;;;;;;4.47;4.07;;;25.60;99.90;;;;;;4836170;29;20041;-90
2021/07/27 09:14:44;;;;;;;4.88;4.47;;;25.60;99.90;;;;;;4827796;29;20056;-89
2021/07/27 09:17:10;;;;;;;4.70;4.30;;;25.60;99.90;;;;;;4845400;29;20034;-89
2021/07/27 09:19:42;;;;;;;4.80;4.40;;;25.60;99.90;;;;;;4825416;29;20496;-90
2021/07/27 09:22:08;;;;;;;5.15;4.65;;;25.60;99.90;;;;;;4825817;29;20478;-89
2021/07/27 09:24:34;;;;;;;5.10;4.60;;;25.60;99.90;;;;;;4825063;29;20057;-89
2021/07/27 09:27:05;;;;;;;5.47;4.97;;;25.60;99.90;;;;;;4825472;29;20118;-90
2021/07/27 09:29:43;;;;;;;5.93;4.90;;;25.60;99.90;;;;;;4825020;29;20126;-89
2021/07/27 09:32:19;;;;;;;7.40;6.75;;;25.60;99.90;;;;;;4825033;29;20057;-90
2021/07/27 09:34:48;;;;;;;7.82;7.03;;;25.60;99.90;;;;;;4826568;29;20092;-90
2021/07/27 09:37:17;;;;;;;8.77;7.65;;;25.70;99.90;;;;;;4827384;29;20477;-92
2021/07/27 09:39:43;;;;;;;10.00;8.18;;;25.70;99.90;;;;;;4826585;29;20556;-90
2021/07/27 09:42:10;;;;;;;8.55;7.68;;;25.70;99.90;;;;;;4824702;29;20124;-90
2021/07/27 09:44:39;;;;;;;8.75;7.70;;;25.70;99.90;;;;;;4824923;29;20062;-90
2021/07/27 09:47:08;;;;;;;9.45;8.45;;;25.70;99.90;;;;;;4825005;29;20082;-90
2021/07/27 09:49:34;;;;;;;8.55;7.65;;;25.70;99.90;;;;;;4809477;29;20092;-90
2021/07/27 09:52:00;;;;;;;10.02;7.55;;;25.70;99.90;;;;;;4825431;29;20188;-90
2021/07/27 09:54:29;;;;;;;8.88;7.97;;;25.70;99.90;;;;;;4828337;29;20036;-90
2021/07/27 09:56:56;;;;;;;8.88;7.43;;;25.70;99.90;;;;;;4828267;29;20457;-90
2021/07/27 09:59:23;;;;;;;7.40;6.70;;;25.70;99.90;;;;;;4831443;29;20058;-90
2021/07/27 10:01:58;;;;;;;8.50;7.53;;;25.70;99.90;;;;;;4827778;29;20026;-90
2021/07/27 10:04:37;;;;;;;7.55;6.85;;;25.70;99.90;;;;;;4827560;29;20037;-91
2021/07/27 10:07:04;;;;;;;7.35;6.65;;;25.70;99.90;;;;;;4831935;29;20045;-90
2021/07/27 10:09:34;;;;;;;7.43;6.72;;;25.70;99.90;;;;;;4827955;29;20404;-89
2021/07/27 10:12:14;;;;;;;9.02;8.05;;;25.70;99.90;;;;;;4829653;29;20036;-90
2021/07/27 10:14:44;;;;;;;10.05;8.60;;;25.70;99.90;;;;;;4833683;29;20033;-90
2021/07/27 10:17:13;;;;;;;8.93;8.02;;;25.70;99.90;;;;;;4828331;29;20149;-90
2021/07/27 10:19:47;;;;;;;8.60;7.75;;;25.80;99.90;;;;;;4827836;29;20078;-89
2021/07/27 10:22:15;;;;;;;8.95;8.02;;;25.80;99.90;;;;;;4827328;29;20034;-90
2021/07/27 10:24:53;;;;;;;8.70;7.80;;;25.80;99.90;;;;;;4812975;29;20038;-89
2021/07/27 10:27:24;;;;;;;9.48;7.55;;;25.80;99.90;;;;;;4826980;29;20068;-88
2021/07/27 10:30:06;;;;;;;9.13;8.25;;;25.80;99.90;;;;;;4812912;29;20041;-89
2021/07/27 10:32:34;;;;;;;10.10;8.70;;;25.80;99.90;;;;;;4815867;29;20129;-88
2021/07/27 10:35:00;;;;;;;10.23;9.13;;;25.80;99.90;;;;;;4813452;29;20034;-89
2021/07/27 10:37:37;;;;;;;12.05;10.23;;;25.80;99.90;;;;;;4814047;29;20040;-90
2021/07/27 10:40:05;;;;;;;10.50;9.40;;;25.90;99.90;;;;;;4832504;29;20038;-89
2021/07/27 10:42:40;;;;;;;10.60;9.50;;;25.80;99.90;;;;;;4812230;29;20369;-90
2021/07/27 10:45:20;;;;;;;11.23;9.98;;;25.90;99.90;;;;;;4827486;29;20117;-90
2021/07/27 10:47:58;;;;;;;10.63;9.52;;;25.90;99.90;;;;;;4843891;29;20048;-90
2021/07/27 10:50:33;;;;;;;10.93;8.93;;;25.90;99.90;;;;;;4843712;29;20112;-90
2021/07/27 10:53:07;;;;;;;9.57;8.48;;;25.90;99.90;;;;;;4827389;29;20193;-90
2021/07/27 10:55:35;;;;;;;9.57;8.48;;;25.90;99.90;;;;;;4827042;29;20034;-90
2021/07/27 10:58:04;;;;;;;9.38;8.02;;;25.90;99.90;;;;;;4827051;29;20058;-90
2021/07/27 11:00:32;;;;;;;9.23;8.07;;;25.90;99.90;;;;;;4826574;29;20497;-90
2021/07/27 11:02:58;;;;;;;8.80;7.88;;;25.90;99.90;;;;;;4826703;29;20078;-90
2021/07/27 11:05:30;;;;;;;9.40;8.45;;;25.90;99.90;;;;;;4826246;29;20045;-90
2021/07/27 11:08:01;;;;;;;8.20;7.40;;;25.90;99.90;;;;;;4827635;29;20030;-91
2021/07/27 11:10:30;;;;;;;8.88;7.97;;;25.90;99.90;;;;;;4813968;29;20026;-91
2021/07/27 11:13:01;;;;;;;8.63;7.82;;;25.90;99.90;;;;;;4827107;29;20034;-90
2021/07/27 11:15:30;;;;;;;8.30;7.45;;;25.90;99.90;;;;;;4838444;29;20030;-90
2021/07/27 11:18:03;;;;;;;8.85;7.45;;;25.90;99.90;;;;;;4851077;29;20121;-90
2021/07/27 11:20:37;;;;;;;7.78;7.05;;;25.90;99.90;;;;;;4829948;29;20048;-89
2021/07/27 11:23:19;;;;;;;8.88;7.97;;;25.90;99.90;;;;;;4827383;29;20110;-88
2021/07/27 11:26:04;;;;;;;9.68;8.13;;;25.90;99.90;;;;;;4842098;29;20042;-90
2021/07/27 11:28:42;;;;;;;10.45;9.00;;;25.80;99.90;;;;;;4826565;29;20034;-90
2021/07/27 11:31:19;;;;;;;11.38;9.60;;;25.80;99.90;;;;;;4825865;29;20473;-89
2021/07/27 11:33:50;;;;;;;10.95;9.07;;;25.90;99.90;;;;;;4842497;29;20499;-88
2021/07/27 11:36:24;;;;;;;10.68;9.20;;;25.90;99.90;;;;;;4826953;29;20084;-89
2021/07/27 11:39:09;;;;;;;11.50;9.88;;;25.90;99.90;;;;;;4826644;29;20026;-90
2021/07/27 11:41:38;;;;;;;9.98;8.98;;;25.90;99.90;;;;;;4831032;29;20045;-90
2021/07/27 11:44:12;;;;;;;9.93;8.93;;;25.90;99.90;;;;;;4816247;29;20041;-90
2021/07/27 11:46:50;;;;;;;9.93;8.77;;;25.90;99.90;;;;;;4811778;29;20125;-89
2021/07/27 11:49:23;;;;;;;10.93;9.23;;;26.00;99.90;;;;;;4831029;29;20041;-89
2021/07/27 11:52:03;;;;;;;11.57;9.93;;;26.00;99.90;;;;;;4826283;29;20069;-88
2021/07/27 11:54:31;;;;;;;10.20;8.52;;;26.00;99.90;;;;;;4826326;29;20036;-88
2021/07/27 11:57:07;;;;;;;11.57;9.32;;;26.00;99.90;;;;;;4810942;29;20609;-89
2021/07/27 11:59:36;;;;;;;10.45;8.18;;;26.00;99.90;;;;;;4825864;29;20092;-90
2021/07/27 12:02:17;;;;;;;10.52;7.82;;;26.00;99.90;;;;;;4817860;29;20038;-91
2021/07/27 12:04:49;;;;;;;8.25;7.38;;;26.00;99.90;;;;;;4813026;29;20129;-92
2021/07/27 12:07:23;;;;;;;9.55;8.65;;;26.00;99.90;;;;;;4842980;29;20145;-92
2021/07/27 12:09:49;;;;;;;8.32;7.43;;;26.00;99.90;;;;;;4826539;29;20030;-90
2021/07/27 12:12:15;;;;;;;8.75;6.72;;;26.00;99.90;;;;;;4826593;29;20090;-91
2021/07/27 12:14:43;;;;;;;8.25;6.75;;;26.00;99.90;;;;;;4829570;29;20017;-92
2021/07/27 12:17:13;;;;;;;7.53;6.63;;;25.90;99.90;;;;;;4813550;29;20041;-89
2021/07/27 12:19:46;;;;;;;7.75;6.47;;;25.90;99.90;;;;;;4830449;29;20034;-91
2021/07/27 12:22:14;;;;;;;8.00;6.63;;;26.00;99.90;;;;;;4829646;29;20034;-90
2021/07/27 12:24:40;;;;;;;7.88;6.13;;;25.90;99.90;;;;;;4834993;29;20113;-90
2021/07/27 12:27:06;;;;;;;7.45;6.60;;;25.90;99.90;;;;;;4838655;29;20098;-90
2021/07/27 12:29:33;;;;;;;7.50;6.20;;;25.90;99.90;;;;;;4836535;29;20059;-90
2021/07/27 12:32:02;;;;;;;7.45;5.80;;;25.90;99.90;;;;;;4836155;29;20058;-91
2021/07/27 12:34:38;;;;;;;8.02;5.53;;;25.90;99.90;;;;;;4847291;29;20030;-90
2021/07/27 12:37:04;;;;;;;5.50;4.85;;;26.00;99.90;;;;;;4828868;29;20318;-91
2021/07/27 12:39:37;;;;;;;5.93;5.05;;;26.00;99.90;;;;;;4811828;29;20132;-91
2021/07/27 12:42:03;;;;;;;6.00;4.70;;;26.00;99.90;;;;;;4815614;29;20034;-89
2021/07/27 12:44:29;;;;;;;4.50;4.03;;;26.00;99.90;;;;;;4825992;29;20030;-91
2021/07/27 12:47:00;;;;;;;5.50;4.47;;;26.00;99.90;;;;;;4826913;29;20053;-91
2021/07/27 12:49:29;;;;;;;4.60;3.63;;;25.90;99.90;;;;;;4828451;29;20064;-91
2021/07/27 12:51:54;;;;;;;3.97;3.58;;;25.90;99.90;;;;;;4828394;29;20061;-91
2021/07/27 12:54:25;;;;;;;3.45;3.00;;;26.00;99.90;;;;;;4828886;29;20082;-92
2021/07/27 12:56:50;;;;;;;3.95;3.25;;;25.90;99.90;;;;;;4811751;29;20049;-92
2021/07/27 12:59:29;;;;;;;;;;;;;;;;;;;;;
2021/07/27 13:01:55;;;;;;;3.40;3.10;;;26.00;99.90;;;;;;4845775;29;20042;-93
2021/07/27 13:04:41;;;;;;;4.18;3.00;;;25.90;99.90;;;;;;4827356;29;20052;-93
2021/07/27 13:10:04;;;;;;;3.45;2.75;;;25.90;99.90;;;;;;4833669;29;20038;-93
2021/07/27 13:12:33;;;;;;;4.13;3.10;;;26.00;99.90;;;;;;4843292;29;20026;-94
2021/07/27 13:14:59;;;;;;;2.85;2.38;;;26.00;99.90;;;;;;4835852;29;20060;-94
2021/07/27 13:17:32;;;;;;;3.15;2.63;;;26.00;99.90;;;;;;4816076;29;20037;-94
2021/07/27 13:20:01;;;;;;;3.50;2.67;;;26.00;99.90;;;;;;4826951;29;20034;-94
2021/07/27 13:22:27;;;;;;;2.20;2.00;;;26.00;99.90;;;;;;4827215;29;20120;-93
2021/07/27 13:24:55;;;;;;;2.58;2.20;;;26.00;99.90;;;;;;4825664;29;20133;-93
2021/07/27 13:27:50;;;;;;;2.10;1.90;;;26.00;99.90;;;;;;4843088;29;20472;-95
2021/07/27 13:30:26;;;;;;;1.83;1.73;;;26.00;99.90;;;;;;4820442;29;20493;-94
2021/07/27 13:36:03;;;;;;;2.22;1.65;;;26.00;99.90;;;;;;4837597;29;20045;-93
2021/07/27 13:38:41;;;;;;;;;;;;;;;;;;;;;
2021/07/27 13:41:25;;;;;;;;;;;;;;;;;;;;;
2021/07/27 13:44:21;;;;;;;2.05;1.55;;;25.90;99.90;;;;;;4854554;29;20089;-94
2021/07/27 13:47:31;;;;;;;;;;;;;;;;;;;;;
2021/07/27 13:53:34;;;;;;;;;;;;;;;;;;;;;
2021/07/27 13:58:49;;;;;;;1.15;1.05;;;26.00;99.90;;;;;;4855657;29;20038;-96
2021/07/27 14:01:40;;;;;;;1.50;1.40;;;26.00;99.90;;;;;;4836574;29;20045;-95
2021/07/27 14:04:14;;;;;;;1.45;1.35;;;26.00;99.90;;;;;;4831996;29;20132;-95
2021/07/27 14:06:49;;;;;;;1.23;1.13;;;25.90;99.90;;;;;;4814917;29;20045;-94
2021/07/27 14:16:29;;;;;;;;;;;;;;;;;;;;;
2021/07/27 14:19:46;;;;;;;1.45;1.20;;;25.90;99.80;;;;;;4845739;29;20026;-96
2021/07/27 14:22:21;;;;;;;1.40;1.30;;;25.90;99.80;;;;;;4845156;29;20110;-94
2021/07/27 14:28:25;;;;;;;;;;;;;;;;;;;;;
2021/07/27 14:30:59;;;;;;;1.35;1.20;;;25.90;99.70;;;;;;4833107;29;20117;-93
2021/07/27 14:33:52;;;;;;;1.50;1.27;;;25.90;99.60;;;;;;4831811;29;20057;-94
2021/07/27 14:36:20;;;;;;;1.23;1.13;;;25.90;99.60;;;;;;4829709;29;20057;-94